createdAt,value
2018-05-27T02:43:28.830Z,60.87
2018-05-27T02:46:05.801Z,64.10
2018-05-27T02:48:54.503Z,61.20
2018-05-27T02:51:35.525Z,60.70
2018-05-27T02:57:11.923Z,67.23
2018-05-27T02:59:58.118Z,64.73
2018-05-27T03:02:32.934Z,56.27
2018-05-27T03:05:28.765Z,60.27
2018-05-27T03:08:06.366Z,57.07
2018-05-27T03:13:57.798Z,54.03
2018-05-27T03:23:10.452Z,56.13
2018-05-27T03:25:50.201Z,57.00
2018-05-27T03:28:30.553Z,45.60
2018-05-27T03:31:18.492Z,35.97
2018-05-27T03:33:57.728Z,45.73
2018-05-27T03:36:54.678Z,37.57
2018-05-27T03:45:12.040Z,49.57
2018-05-27T03:51:05.315Z,53.80
2018-05-27T04:02:30.888Z,34.20
2018-05-27T04:05:15.454Z,29.00
2018-05-27T04:08:02.527Z,29.30
2018-05-27T04:10:39.344Z,28.60
2018-05-27T04:56:04.725Z,29.23
2018-05-27T05:02:06.258Z,23.47
2018-05-27T05:04:47.993Z,20.10
2018-05-27T05:07:23.027Z,20.00
2018-05-27T05:10:11.800Z,21.00
2018-05-27T05:12:51.953Z,23.07
2018-05-27T05:18:23.320Z,17.43
2018-05-27T09:12:44.566Z,9.20
2018-05-27T09:15:13.529Z,9.43
2018-05-27T09:17:41.849Z,8.80
2018-05-27T09:20:10.266Z,10.33
2018-05-27T09:22:38.584Z,15.93
2018-05-27T09:25:06.940Z,7.80
2018-05-27T09:27:35.241Z,7.63
2018-05-27T09:30:03.557Z,9.40
2018-05-27T09:32:31.855Z,8.10
2018-05-27T09:35:00.211Z,9.20
2018-05-27T09:37:29.027Z,8.10
2018-05-27T09:39:57.305Z,9.90
2018-05-27T09:42:26.175Z,8.43
2018-05-27T09:44:54.567Z,7.60
2018-05-27T09:47:22.883Z,11.17
2018-05-27T09:49:51.756Z,9.80
2018-05-27T09:52:20.124Z,9.70
2018-05-27T09:54:48.430Z,9.30
2018-05-27T09:57:17.013Z,11.90
2018-05-27T09:59:45.494Z,15.37
2018-05-27T10:02:13.866Z,11.50
2018-05-27T10:04:42.238Z,10.37
2018-05-27T10:07:10.584Z,10.93
2018-05-27T10:09:38.899Z,16.10
2018-05-27T10:12:07.250Z,14.80
2018-05-27T10:14:35.607Z,18.33
2018-05-27T10:17:03.927Z,14.43
2018-05-27T10:19:33.147Z,12.23
2018-05-27T10:22:01.499Z,15.47
2018-05-27T10:24:31.231Z,19.13
2018-05-27T10:27:00.485Z,16.30
2018-05-27T10:29:28.825Z,17.80
2018-05-27T10:31:57.165Z,20.37
2018-05-27T10:34:25.569Z,20.37
2018-05-27T10:36:53.902Z,19.37
2018-05-27T10:39:22.319Z,23.70
2018-05-27T10:41:50.847Z,17.20
2018-05-27T10:44:19.269Z,20.17
2018-05-27T10:46:47.660Z,21.27
2018-05-27T10:49:16.138Z,18.30
2018-05-27T10:51:45.453Z,21.43
2018-05-27T10:54:13.800Z,23.27
2018-05-27T10:56:42.670Z,30.07
2018-05-27T10:59:11.914Z,28.37
2018-05-27T11:01:40.311Z,23.30
2018-05-27T11:04:08.721Z,29.20
2018-05-27T11:06:37.074Z,25.63
2018-05-27T11:09:05.531Z,28.93
2018-05-27T11:11:33.909Z,24.73
2018-05-27T11:14:02.228Z,28.50
2018-05-27T11:16:30.631Z,27.70
2018-05-27T11:19:00.452Z,26.03
2018-05-27T11:21:28.777Z,26.43
2018-05-27T11:23:57.141Z,27.97
2018-05-27T11:26:25.855Z,29.33
2018-05-27T11:28:54.182Z,26.20
2018-05-27T11:31:23.184Z,25.93
2018-05-27T11:33:51.964Z,30.53
2018-05-27T11:36:20.469Z,27.10
2018-05-27T11:38:48.825Z,33.73
2018-05-27T11:41:18.031Z,34.53
2018-05-27T11:43:46.424Z,28.40
2018-05-27T11:46:15.035Z,27.87
2018-05-27T11:48:43.462Z,26.53
2018-05-27T11:51:12.036Z,33.43
2018-05-27T11:53:40.341Z,28.57
2018-05-27T11:56:09.264Z,29.20
2018-05-27T11:58:37.594Z,29.33
2018-05-27T12:01:05.930Z,29.73
2018-05-27T12:03:35.052Z,37.90
2018-05-27T12:06:03.378Z,24.67
2018-05-27T12:08:31.721Z,29.23
2018-05-27T12:11:00.494Z,23.43
2018-05-27T12:13:28.820Z,27.10
2018-05-27T12:15:57.217Z,20.30
2018-05-27T12:18:25.554Z,18.03
2018-05-27T12:20:53.900Z,19.70
2018-05-27T12:23:22.289Z,18.07
2018-05-27T12:25:50.791Z,19.37
2018-05-27T12:28:19.169Z,18.90
2018-05-27T12:30:47.545Z,16.63
2018-05-27T12:33:15.931Z,25.53
2018-05-27T12:35:44.394Z,16.70
2018-05-27T12:38:12.865Z,18.47
2018-05-27T12:40:42.417Z,28.47
2018-05-27T12:43:11.358Z,17.53
2018-05-27T12:45:39.722Z,15.87
2018-05-27T12:48:08.931Z,21.70
2018-05-27T12:50:37.242Z,14.10
2018-05-27T12:53:05.588Z,14.40
2018-05-27T12:55:33.971Z,12.63
2018-05-27T12:58:02.306Z,16.50
2018-05-27T13:00:30.614Z,13.77
2018-05-27T13:02:59.020Z,12.03
2018-05-27T13:05:27.348Z,11.00
2018-05-27T13:07:55.731Z,16.53
2018-05-27T13:10:25.092Z,12.63
2018-05-27T13:12:54.193Z,14.97
2018-05-27T13:15:22.557Z,14.93
2018-05-27T13:17:50.941Z,14.37
2018-05-27T13:20:19.576Z,12.67
2018-05-27T13:22:47.979Z,17.07
2018-05-27T13:25:17.335Z,15.07
2018-05-27T13:27:45.694Z,15.73
2018-05-27T13:30:15.101Z,15.93
2018-05-27T13:32:43.782Z,18.90
2018-05-27T13:35:12.160Z,24.10
2018-05-27T13:37:40.614Z,22.90
2018-05-27T13:40:09.061Z,20.07
2018-05-27T13:42:37.383Z,23.30
2018-05-27T13:45:05.772Z,24.77
2018-05-27T13:47:34.219Z,25.13
2018-05-27T13:50:02.549Z,21.80
2018-05-27T13:52:30.875Z,19.10
2018-05-27T13:54:59.209Z,20.23
2018-05-27T13:57:27.747Z,18.40
2018-05-27T13:59:56.349Z,17.03
2018-05-27T14:02:25.117Z,17.17
2018-05-27T14:04:53.505Z,20.03
2018-05-27T14:07:21.872Z,19.60
2018-05-27T14:09:50.480Z,15.43
2018-05-27T14:12:18.835Z,15.27
2018-05-27T14:14:47.221Z,15.03
2018-05-27T14:17:15.788Z,13.50
2018-05-27T14:19:44.106Z,16.37
2018-05-27T14:22:12.562Z,12.83
2018-05-27T14:24:41.044Z,11.43
2018-05-27T14:27:09.334Z,11.83
2018-05-27T14:29:37.682Z,11.50
2018-05-27T14:32:06.040Z,8.87
2018-05-27T14:34:34.335Z,11.67
2018-05-27T14:37:02.647Z,12.43
2018-05-27T14:39:31.292Z,12.90
2018-05-27T14:41:59.605Z,13.57
2018-05-27T14:44:28.567Z,11.80
2018-05-27T14:46:57.033Z,11.87
2018-05-27T14:49:25.346Z,15.80
2018-05-27T14:51:53.709Z,16.57
2018-05-27T14:54:22.081Z,17.93
2018-05-27T14:56:50.459Z,15.10
2018-05-27T14:59:18.920Z,13.00
2018-05-27T15:01:48.154Z,16.20
2018-05-27T15:04:16.518Z,16.57
2018-05-27T15:06:44.913Z,20.87
2018-05-27T15:09:13.529Z,18.73
2018-05-27T15:11:41.880Z,19.47
2018-05-27T15:14:10.268Z,20.30
2018-05-27T15:16:38.821Z,23.47
2018-05-27T15:19:07.138Z,20.90
2018-05-27T15:21:35.479Z,20.93
2018-05-27T15:24:04.266Z,20.10
2018-05-27T15:26:32.632Z,20.57
2018-05-27T15:29:00.937Z,28.10
2018-05-27T15:31:29.299Z,21.57
2018-05-27T15:33:57.613Z,23.67
2018-05-27T15:36:25.955Z,22.53
2018-05-27T15:38:55.032Z,25.77
2018-05-27T15:41:23.429Z,24.33
2018-05-27T15:43:51.786Z,19.53
2018-05-27T15:46:21.054Z,29.80
2018-05-27T15:48:49.432Z,23.07
2018-05-27T15:51:17.811Z,20.80
2018-05-27T15:53:46.698Z,21.37
2018-05-27T15:56:14.994Z,22.83
2018-05-27T15:58:43.394Z,23.07
2018-05-27T16:01:11.956Z,26.63
2018-05-27T16:03:40.925Z,20.40
2018-05-27T16:06:09.252Z,20.37
2018-05-27T16:08:37.635Z,28.83
2018-05-27T16:11:06.005Z,21.27
2018-05-27T16:13:34.307Z,22.90
2018-05-27T16:16:02.669Z,21.40
2018-05-27T16:18:30.954Z,22.70
2018-05-27T16:20:59.317Z,24.90
2018-05-27T16:23:28.434Z,22.33
2018-05-27T16:25:56.789Z,20.90
2018-05-27T16:28:25.126Z,23.67
2018-05-27T16:30:53.537Z,24.33
2018-05-27T16:33:21.890Z,16.63
2018-05-27T16:35:50.319Z,20.80
2018-05-27T16:38:18.786Z,19.70
2018-05-27T16:40:47.140Z,21.17
2018-05-27T16:43:15.849Z,23.93
2018-05-27T16:45:44.535Z,21.50
2018-05-27T16:48:12.891Z,25.93
2018-05-27T16:50:41.615Z,26.33
2018-05-27T16:53:09.998Z,21.73
2018-05-27T16:55:38.315Z,21.73
2018-05-27T16:58:06.650Z,23.43
2018-05-27T17:00:35.023Z,24.10
2018-05-27T17:03:03.389Z,28.50
2018-05-27T17:05:31.725Z,22.57
2018-05-27T17:08:00.157Z,25.93
2018-05-27T17:10:28.468Z,27.90
2018-05-27T17:12:56.862Z,23.27
2018-05-27T17:15:25.243Z,29.83
2018-05-27T17:17:53.984Z,27.37
2018-05-27T17:20:22.327Z,23.10
2018-05-27T17:22:50.881Z,28.97
2018-05-27T17:25:19.211Z,25.63
2018-05-27T17:27:47.759Z,28.87
2018-05-27T17:30:16.126Z,25.23
2018-05-27T17:32:44.548Z,37.13
2018-05-27T17:35:13.109Z,29.27
2018-05-27T17:37:41.593Z,29.57
2018-05-27T17:40:09.945Z,29.33
2018-05-27T17:42:38.273Z,29.27
2018-05-27T17:45:06.859Z,29.87
2018-05-27T17:47:35.186Z,33.23
2018-05-27T17:50:03.648Z,27.20
2018-05-27T17:52:32.938Z,28.47
2018-05-27T17:55:04.199Z,31.27
2018-05-27T17:57:32.595Z,32.63
2018-05-27T18:00:00.969Z,30.20
2018-05-27T18:02:29.332Z,34.00
2018-05-27T18:04:57.674Z,33.30
2018-05-27T18:07:26.909Z,37.70
2018-05-27T18:09:55.309Z,35.43
2018-05-27T18:12:24.117Z,33.60
2018-05-27T18:14:53.264Z,35.60
2018-05-27T18:17:21.626Z,31.00
2018-05-27T18:19:51.404Z,35.20
2018-05-27T18:22:20.031Z,29.80
2018-05-27T18:24:48.396Z,35.90
2018-05-27T18:27:16.756Z,35.80
2018-05-27T18:29:45.205Z,39.47
2018-05-27T18:32:13.588Z,39.57
2018-05-27T18:34:42.153Z,40.57
2018-05-27T18:37:10.526Z,34.60
2018-05-27T18:39:39.031Z,36.70
2018-05-27T18:42:07.377Z,33.30
2018-05-27T18:44:35.779Z,35.63
2018-05-27T18:47:04.101Z,36.87
2018-05-27T18:49:32.411Z,42.27
2018-05-27T18:52:00.966Z,31.43
2018-05-27T18:54:29.339Z,41.27
2018-05-27T18:56:57.670Z,35.13
2018-05-27T18:59:26.023Z,41.83
2018-05-27T19:01:54.376Z,41.53
2018-05-27T19:04:22.833Z,43.37
2018-05-27T19:06:51.276Z,49.33
2018-05-27T19:09:19.617Z,51.70
2018-05-27T19:11:49.845Z,49.10
2018-05-27T19:14:19.958Z,59.17
2018-05-27T19:16:49.245Z,52.63
2018-05-27T19:19:17.785Z,55.40
2018-05-27T19:21:46.639Z,64.57
2018-05-27T19:24:15.103Z,66.03
2018-05-27T19:26:43.482Z,56.43
2018-05-27T19:29:11.917Z,60.30
2018-05-27T19:31:40.240Z,62.50
2018-05-27T19:34:08.573Z,59.07
2018-05-27T19:36:37.928Z,67.17
2018-05-27T19:39:06.256Z,69.60
2018-05-27T19:41:34.573Z,68.60
2018-05-27T19:44:04.487Z,67.77
2018-05-27T19:46:32.823Z,90.43
2018-05-27T19:49:01.176Z,70.20
2018-05-27T19:51:30.186Z,72.90
2018-05-27T19:53:58.514Z,86.53
2018-05-27T19:56:26.841Z,72.47
2018-05-27T19:58:55.229Z,80.63
2018-05-27T20:01:23.584Z,78.77
2018-05-27T20:03:52.009Z,75.90
2018-05-27T20:06:20.747Z,74.47
2018-05-27T20:08:49.188Z,72.97
2018-05-27T20:11:17.592Z,74.80
2018-05-27T20:13:46.292Z,86.93
2018-05-27T20:16:14.602Z,78.60
2018-05-27T20:18:43.001Z,71.93
2018-05-27T20:21:11.488Z,71.03
2018-05-27T20:23:39.909Z,65.00
2018-05-27T20:26:11.263Z,70.73
2018-05-27T20:28:42.599Z,67.03
2018-05-27T20:31:13.348Z,68.83
2018-05-27T20:33:44.139Z,65.17
2018-05-27T20:36:14.535Z,69.30
2018-05-27T20:38:48.003Z,58.37
2018-05-27T20:41:21.609Z,56.17
2018-05-27T20:43:51.722Z,64.40
2018-05-27T20:46:23.102Z,57.87
2018-05-27T20:48:51.678Z,58.70
2018-05-27T20:51:23.514Z,54.30
2018-05-27T20:53:52.700Z,64.03
2018-05-27T20:56:21.174Z,62.37
2018-05-27T20:58:51.630Z,74.77
2018-05-27T21:01:23.077Z,62.40
2018-05-27T21:03:52.392Z,61.00
2018-05-27T21:06:23.009Z,66.10
2018-05-27T21:08:51.705Z,64.30
2018-05-27T21:11:20.447Z,66.80
2018-05-27T21:13:48.783Z,60.07
2018-05-27T21:16:17.415Z,69.23
2018-05-27T21:18:46.007Z,70.90
2018-05-27T21:21:14.431Z,68.23
2018-05-27T21:23:45.274Z,73.00
2018-05-27T21:26:13.893Z,70.60
2018-05-27T21:28:42.279Z,65.23
2018-05-27T21:31:10.859Z,73.30
2018-05-27T21:33:39.465Z,76.03
2018-05-27T21:36:07.789Z,70.80
2018-05-27T21:38:36.117Z,77.20
2018-05-27T21:41:04.476Z,73.23
2018-05-27T21:43:32.825Z,67.40
2018-05-27T21:46:01.168Z,68.17
2018-05-27T21:48:29.847Z,72.30
2018-05-27T21:50:59.133Z,72.13
2018-05-27T21:53:27.470Z,69.10
2018-05-27T21:55:55.842Z,68.00
2018-05-27T21:58:24.260Z,64.60
2018-05-27T22:00:52.902Z,67.17
2018-05-27T22:03:21.699Z,66.90
2018-05-27T22:05:50.059Z,69.93
2018-05-27T22:08:18.497Z,54.90
2018-05-27T22:10:46.946Z,67.13
2018-05-27T22:13:15.421Z,64.43
2018-05-27T22:15:44.274Z,65.67
2018-05-27T22:18:12.657Z,59.03
2018-05-27T22:20:40.995Z,58.17
2018-05-27T22:23:09.309Z,64.13
2018-05-27T22:25:37.665Z,65.03
2018-05-27T22:28:06.023Z,61.87
2018-05-27T22:30:34.339Z,62.20
2018-05-27T22:33:03.557Z,55.67
2018-05-27T22:35:31.873Z,65.93
2018-05-27T22:38:00.182Z,57.83
2018-05-27T22:40:28.861Z,64.53
2018-05-27T22:42:57.194Z,60.43
2018-05-27T22:45:25.720Z,54.47
2018-05-27T22:47:54.081Z,58.63
2018-05-27T22:50:22.456Z,58.73
2018-05-27T22:52:50.797Z,56.93
2018-05-27T22:55:19.223Z,57.20
2018-05-27T22:57:47.600Z,56.67
2018-05-27T23:00:15.959Z,53.50
2018-05-27T23:02:44.429Z,60.50
2018-05-27T23:05:12.820Z,53.57
2018-05-27T23:07:41.150Z,54.53
2018-05-27T23:10:09.754Z,49.50
2018-05-27T23:12:38.285Z,52.13
2018-05-27T23:15:06.649Z,49.13
2018-05-27T23:17:35.005Z,49.30
2018-05-27T23:20:09.254Z,45.23
2018-05-27T23:22:37.869Z,49.23
2018-05-27T23:25:06.259Z,51.97
2018-05-27T23:27:34.633Z,51.03
2018-05-27T23:30:04.159Z,47.70
2018-05-27T23:32:32.480Z,52.53
2018-05-27T23:35:00.786Z,49.27
2018-05-27T23:37:29.352Z,50.93
2018-05-27T23:39:57.719Z,48.17
2018-05-27T23:42:26.051Z,49.53
2018-05-27T23:44:54.778Z,42.47
2018-05-27T23:47:23.124Z,57.03
2018-05-27T23:49:51.448Z,47.03
2018-05-27T23:52:21.142Z,51.30
2018-05-27T23:54:49.597Z,51.43
2018-05-27T23:57:17.968Z,52.60
2018-05-27T23:59:46.393Z,46.27
